sensor_id;sensor_type;location;lat;lon;timestamp;pressure;altitude;pressure_sealevel;temperature;humidity
56400;BME280;42298;53.638;9.876;2022-12-05T00:01:26;101831.53;;;8.30;69.21
56400;BME280;42298;53.638;9.876;2022-12-05T00:03:54;101839.19;;;8.28;69.42
56400;BME280;42298;53.638;9.876;2022-12-05T00:06:20;101825.09;;;8.15;69.98
56400;BME280;42298;53.638;9.876;2022-12-05T00:08:47;101792.09;;;8.00;70.10
56400;BME280;42298;53.638;9.876;2022-12-05T00:11:14;101823.16;;;8.10;70.93
56400;BME280;42298;53.638;9.876;2022-12-05T00:13:41;101820.41;;;8.05;70.94
56400;BME280;42298;53.638;9.876;2022-12-05T00:16:09;101771.41;;;7.77;71.74
56400;BME280;42298;53.638;9.876;2022-12-05T00:18:34;101809.97;;;8.02;71.90
56400;BME280;42298;53.638;9.876;2022-12-05T00:21:00;101818.50;;;8.11;71.52
56400;BME280;42298;53.638;9.876;2022-12-05T00:23:25;101799.78;;;7.98;71.85
56400;BME280;42298;53.638;9.876;2022-12-05T00:25:50;101804.75;;;8.01;71.64
56400;BME280;42298;53.638;9.876;2022-12-05T00:28:16;101802.28;;;8.04;72.50
56400;BME280;42298;53.638;9.876;2022-12-05T00:30:41;101806.38;;;8.02;72.06
56400;BME280;42298;53.638;9.876;2022-12-05T00:33:06;101794.03;;;7.99;72.53
56400;BME280;42298;53.638;9.876;2022-12-05T00:35:32;101805.63;;;8.16;72.56
56400;BME280;42298;53.638;9.876;2022-12-05T00:37:58;101771.25;;;7.99;71.75
56400;BME280;42298;53.638;9.876;2022-12-05T00:40:23;101804.53;;;8.17;71.82
56400;BME280;42298;53.638;9.876;2022-12-05T00:42:48;101777.56;;;7.99;71.64
56400;BME280;42298;53.638;9.876;2022-12-05T00:45:14;101790.22;;;8.10;71.91
56400;BME280;42298;53.638;9.876;2022-12-05T00:47:40;101755.56;;;7.89;71.51
56400;BME280;42298;53.638;9.876;2022-12-05T00:50:06;101799.09;;;8.22;71.58
56400;BME280;42298;53.638;9.876;2022-12-05T00:52:32;101761.03;;;7.84;72.06
56400;BME280;42298;53.638;9.876;2022-12-05T00:54:57;101790.75;;;8.02;72.33
56400;BME280;42298;53.638;9.876;2022-12-05T00:57:22;101751.16;;;7.83;72.01
56400;BME280;42298;53.638;9.876;2022-12-05T00:59:48;101793.81;;;8.11;72.12
56400;BME280;42298;53.638;9.876;2022-12-05T01:02:13;101799.66;;;8.24;71.92
56400;BME280;42298;53.638;9.876;2022-12-05T01:04:38;101802.88;;;8.16;72.29
56400;BME280;42298;53.638;9.876;2022-12-05T01:07:04;101781.47;;;8.08;72.07
56400;BME280;42298;53.638;9.876;2022-12-05T01:09:29;101769.63;;;8.03;72.26
56400;BME280;42298;53.638;9.876;2022-12-05T01:11:55;101783.06;;;8.04;71.88
56400;BME280;42298;53.638;9.876;2022-12-05T01:14:22;101802.91;;;8.21;72.41
56400;BME280;42298;53.638;9.876;2022-12-05T01:16:49;101799.94;;;8.23;72.20
56400;BME280;42298;53.638;9.876;2022-12-05T01:19:22;101806.50;;;8.27;72.19
56400;BME280;42298;53.638;9.876;2022-12-05T01:21:48;101785.88;;;8.14;72.55
56400;BME280;42298;53.638;9.876;2022-12-05T01:24:15;101793.56;;;8.17;72.52
56400;BME280;42298;53.638;9.876;2022-12-05T01:26:42;101782.00;;;8.05;72.57
56400;BME280;42298;53.638;9.876;2022-12-05T01:29:08;101777.63;;;8.09;72.57
56400;BME280;42298;53.638;9.876;2022-12-05T01:31:36;101812.88;;;8.37;72.67
56400;BME280;42298;53.638;9.876;2022-12-05T01:34:07;101803.25;;;8.35;71.93
56400;BME280;42298;53.638;9.876;2022-12-05T01:36:33;101780.38;;;8.19;72.38
56400;BME280;42298;53.638;9.876;2022-12-05T01:38:59;101767.75;;;8.08;72.36
56400;BME280;42298;53.638;9.876;2022-12-05T01:41:28;101777.97;;;8.23;72.75
56400;BME280;42298;53.638;9.876;2022-12-05T01:46:23;101795.28;;;8.38;72.74
56400;BME280;42298;53.638;9.876;2022-12-05T01:48:50;101763.41;;;8.22;72.75
56400;BME280;42298;53.638;9.876;2022-12-05T01:51:17;101770.00;;;8.26;72.77
56400;BME280;42298;53.638;9.876;2022-12-05T01:53:43;101759.53;;;8.18;72.89
56400;BME280;42298;53.638;9.876;2022-12-05T01:56:08;101769.41;;;8.14;72.76
56400;BME280;42298;53.638;9.876;2022-12-05T01:58:36;101795.84;;;8.35;72.92
56400;BME280;42298;53.638;9.876;2022-12-05T02:01:02;101779.09;;;8.32;73.06
56400;BME280;42298;53.638;9.876;2022-12-05T02:03:28;101781.03;;;8.41;72.67
56400;BME280;42298;53.638;9.876;2022-12-05T02:05:55;101737.59;;;8.18;72.77
56400;BME280;42298;53.638;9.876;2022-12-05T02:08:26;101776.09;;;8.43;73.02
56400;BME280;42298;53.638;9.876;2022-12-05T02:10:55;101761.81;;;8.36;73.37
56400;BME280;42298;53.638;9.876;2022-12-05T02:13:42;101776.13;;;8.48;73.11
56400;BME280;42298;53.638;9.876;2022-12-05T02:18:40;101771.69;;;8.37;73.24
56400;BME280;42298;53.638;9.876;2022-12-05T02:24:21;101756.88;;;8.38;73.96
56400;BME280;42298;53.638;9.876;2022-12-05T02:29:27;101763.16;;;8.34;74.10
56400;BME280;42298;53.638;9.876;2022-12-05T02:39:40;101758.28;;;8.61;73.31
56400;BME280;42298;53.638;9.876;2022-12-05T02:42:30;101751.16;;;8.60;73.45
56400;BME280;42298;53.638;9.876;2022-12-05T02:45:01;101747.59;;;8.64;72.95
56400;BME280;42298;53.638;9.876;2022-12-05T02:47:30;101752.81;;;8.66;73.36
56400;BME280;42298;53.638;9.876;2022-12-05T02:49:58;101750.88;;;8.56;73.49
56400;BME280;42298;53.638;9.876;2022-12-05T02:52:24;101739.88;;;8.46;73.53
56400;BME280;42298;53.638;9.876;2022-12-05T02:54:52;101746.50;;;8.55;73.80
56400;BME280;42298;53.638;9.876;2022-12-05T02:57:20;101746.22;;;8.57;73.92
56400;BME280;42298;53.638;9.876;2022-12-05T02:59:46;101715.97;;;8.37;73.76
56400;BME280;42298;53.638;9.876;2022-12-05T03:02:25;101715.75;;;8.48;73.59
56400;BME280;42298;53.638;9.876;2022-12-05T03:04:52;101739.38;;;8.54;73.75
56400;BME280;42298;53.638;9.876;2022-12-05T03:07:18;101740.75;;;8.62;74.06
56400;BME280;42298;53.638;9.876;2022-12-05T03:09:49;101733.06;;;8.59;73.25
56400;BME280;42298;53.638;9.876;2022-12-05T03:12:22;101725.06;;;8.62;73.74
56400;BME280;42298;53.638;9.876;2022-12-05T03:15:02;101732.50;;;8.72;73.91
56400;BME280;42298;53.638;9.876;2022-12-05T03:17:36;101731.13;;;8.74;73.97
56400;BME280;42298;53.638;9.876;2022-12-05T03:20:16;101704.50;;;8.60;73.65
56400;BME280;42298;53.638;9.876;2022-12-05T03:25:11;101732.78;;;8.85;73.06
56400;BME280;42298;53.638;9.876;2022-12-05T03:27:46;101734.72;;;8.90;73.40
56400;BME280;42298;53.638;9.876;2022-12-05T03:30:17;101742.69;;;8.91;72.61
56400;BME280;42298;53.638;9.876;2022-12-05T03:33:17;101735.53;;;8.85;73.47
56400;BME280;42298;53.638;9.876;2022-12-05T03:36:09;101726.19;;;8.71;73.83
56400;BME280;42298;53.638;9.876;2022-12-05T03:38:44;101695.69;;;8.58;74.34
56400;BME280;42298;53.638;9.876;2022-12-05T03:41:22;101728.41;;;8.79;73.41
56400;BME280;42298;53.638;9.876;2022-12-05T03:44:12;101725.09;;;8.77;73.91
56400;BME280;42298;53.638;9.876;2022-12-05T03:46:50;101716.84;;;8.62;74.13
56400;BME280;42298;53.638;9.876;2022-12-05T03:49:31;101719.34;;;8.74;74.02
56400;BME280;42298;53.638;9.876;2022-12-05T03:52:08;101710.00;;;8.80;73.69
56400;BME280;42298;53.638;9.876;2022-12-05T03:54:39;101724.28;;;8.87;73.75
56400;BME280;42298;53.638;9.876;2022-12-05T03:57:14;101697.66;;;8.72;73.58
56400;BME280;42298;53.638;9.876;2022-12-05T03:59:52;101727.84;;;8.82;73.71
56400;BME280;42298;53.638;9.876;2022-12-05T04:02:27;101704.50;;;8.60;74.19
56400;BME280;42298;53.638;9.876;2022-12-05T04:05:08;101714.09;;;8.67;73.89
56400;BME280;42298;53.638;9.876;2022-12-05T04:07:36;101719.31;;;8.79;74.33
56400;BME280;42298;53.638;9.876;2022-12-05T04:10:07;101724.53;;;8.80;74.03
56400;BME280;42298;53.638;9.876;2022-12-05T04:12:35;101722.34;;;8.77;74.24
56400;BME280;42298;53.638;9.876;2022-12-05T04:15:06;101724.28;;;8.82;74.27
56400;BME280;42298;53.638;9.876;2022-12-05T04:17:49;101715.50;;;8.80;73.61
56400;BME280;42298;53.638;9.876;2022-12-05T04:20:27;101721.25;;;8.78;74.17
56400;BME280;42298;53.638;9.876;2022-12-05T04:23:14;101728.94;;;8.76;73.72
56400;BME280;42298;53.638;9.876;2022-12-05T04:26:11;101701.75;;;8.65;74.22
56400;BME280;42298;53.638;9.876;2022-12-05T04:29:00;101725.38;;;8.91;74.45
56400;BME280;42298;53.638;9.876;2022-12-05T04:31:34;101697.06;;;8.80;73.66
56400;BME280;42298;53.638;9.876;2022-12-05T04:34:05;101708.34;;;8.79;73.69
56400;BME280;42298;53.638;9.876;2022-12-05T04:36:35;101721.25;;;8.88;73.16
56400;BME280;42298;53.638;9.876;2022-12-05T04:39:11;101721.78;;;8.80;73.98
56400;BME280;42298;53.638;9.876;2022-12-05T04:42:26;101714.41;;;8.86;73.85
56400;BME280;42298;53.638;9.876;2022-12-05T04:44:37;101699.84;;;8.60;74.36
56400;BME280;42298;53.638;9.876;2022-12-05T04:47:06;101714.66;;;8.74;74.38
56400;BME280;42298;53.638;9.876;2022-12-05T04:49:34;101733.59;;;8.76;73.88
56400;BME280;42298;53.638;9.876;2022-12-05T04:52:03;101732.25;;;8.78;74.19
56400;BME280;42298;53.638;9.876;2022-12-05T04:54:40;101735.53;;;8.80;74.00
56400;BME280;42298;53.638;9.876;2022-12-05T04:57:18;101724.00;;;8.78;73.73
56400;BME280;42298;53.638;9.876;2022-12-05T04:59:47;101727.28;;;8.65;74.06
56400;BME280;42298;53.638;9.876;2022-12-05T05:02:17;101731.66;;;8.56;74.74
56400;BME280;42298;53.638;9.876;2022-12-05T05:04:46;101735.50;;;8.55;74.73
56400;BME280;42298;53.638;9.876;2022-12-05T05:07:15;101726.16;;;8.56;74.01
56400;BME280;42298;53.638;9.876;2022-12-05T05:09:41;101707.19;;;8.40;74.48
56400;BME280;42298;53.638;9.876;2022-12-05T05:12:07;101728.66;;;8.63;74.68
56400;BME280;42298;53.638;9.876;2022-12-05T05:14:32;101734.41;;;8.61;74.62
56400;BME280;42298;53.638;9.876;2022-12-05T05:16:58;101704.50;;;8.50;74.34
56400;BME280;42298;53.638;9.876;2022-12-05T05:19:24;101724.28;;;8.72;73.74
56400;BME280;42298;53.638;9.876;2022-12-05T05:21:50;101717.41;;;8.69;74.42
56400;BME280;42298;53.638;9.876;2022-12-05T05:24:16;101711.38;;;8.72;74.02
56400;BME280;42298;53.638;9.876;2022-12-05T05:26:43;101698.97;;;8.55;73.96
56400;BME280;42298;53.638;9.876;2022-12-05T05:29:09;101714.91;;;8.63;74.55
56400;BME280;42298;53.638;9.876;2022-12-05T05:31:36;101714.91;;;8.73;74.50
56400;BME280;42298;53.638;9.876;2022-12-05T05:34:02;101713.31;;;8.77;73.80
56400;BME280;42298;53.638;9.876;2022-12-05T05:36:28;101690.78;;;8.65;73.98
56400;BME280;42298;53.638;9.876;2022-12-05T05:38:55;101677.84;;;8.45;73.95
56400;BME280;42298;53.638;9.876;2022-12-05T05:41:26;101708.06;;;8.60;74.57
56400;BME280;42298;53.638;9.876;2022-12-05T05:43:52;101716.28;;;8.55;74.60
56400;BME280;42298;53.638;9.876;2022-12-05T05:46:20;101686.59;;;8.22;74.65
56400;BME280;42298;53.638;9.876;2022-12-05T05:48:46;101719.81;;;8.46;74.21
56400;BME280;42298;53.638;9.876;2022-12-05T05:51:12;101719.56;;;8.42;74.32
56400;BME280;42298;53.638;9.876;2022-12-05T05:53:38;101723.41;;;8.46;74.76
56400;BME280;42298;53.638;9.876;2022-12-05T05:56:05;101702.00;;;8.48;74.16
56400;BME280;42298;53.638;9.876;2022-12-05T05:58:31;101715.47;;;8.50;73.73
56400;BME280;42298;53.638;9.876;2022-12-05T06:01:08;101699.81;;;8.55;73.64
56400;BME280;42298;53.638;9.876;2022-12-05T06:03:34;101681.66;;;8.44;73.70
56400;BME280;42298;53.638;9.876;2022-12-05T06:06:03;101717.41;;;8.69;73.39
56400;BME280;42298;53.638;9.876;2022-12-05T06:08:35;101722.31;;;8.62;73.88
56400;BME280;42298;53.638;9.876;2022-12-05T06:11:18;101721.78;;;8.65;73.44
56400;BME280;42298;53.638;9.876;2022-12-05T06:13:45;101725.06;;;8.62;73.62
56400;BME280;42298;53.638;9.876;2022-12-05T06:16:12;101696.25;;;8.50;73.07
56400;BME280;42298;53.638;9.876;2022-12-05T06:18:38;101710.50;;;8.42;72.75
56400;BME280;42298;53.638;9.876;2022-12-05T06:21:03;101725.91;;;8.58;72.90
56400;BME280;42298;53.638;9.876;2022-12-05T06:23:32;101722.03;;;8.39;72.89
56400;BME280;42298;53.638;9.876;2022-12-05T06:25:57;101715.69;;;8.28;73.32
56400;BME280;42298;53.638;9.876;2022-12-05T06:28:24;101730.00;;;8.40;73.25
56400;BME280;42298;53.638;9.876;2022-12-05T06:30:50;101704.41;;;8.25;73.26
56400;BME280;42298;53.638;9.876;2022-12-05T06:33:15;101738.25;;;8.45;73.38
56400;BME280;42298;53.638;9.876;2022-12-05T06:35:41;101709.63;;;8.26;73.13
56400;BME280;42298;53.638;9.876;2022-12-05T06:38:07;101684.88;;;8.16;72.41
56400;BME280;42298;53.638;9.876;2022-12-05T06:40:33;101705.19;;;8.10;72.95
56400;BME280;42298;53.638;9.876;2022-12-05T06:42:58;101736.22;;;8.21;73.44
56400;BME280;42298;53.638;9.876;2022-12-05T06:45:23;101724.69;;;8.14;73.78
56400;BME280;42298;53.638;9.876;2022-12-05T06:47:50;101719.22;;;8.19;73.61
56400;BME280;42298;53.638;9.876;2022-12-05T06:50:16;101724.19;;;8.27;72.85
56400;BME280;42298;53.638;9.876;2022-12-05T06:52:41;101723.31;;;8.16;73.11
56400;BME280;42298;53.638;9.876;2022-12-05T06:55:06;101732.63;;;8.10;73.31
56400;BME280;42298;53.638;9.876;2022-12-05T06:57:32;101714.50;;;7.99;73.09
56400;BME280;42298;53.638;9.876;2022-12-05T06:59:57;101733.41;;;8.06;73.24
56400;BME280;42298;53.638;9.876;2022-12-05T07:02:42;101719.94;;;7.94;73.26
56400;BME280;42298;53.638;9.876;2022-12-05T07:05:08;101721.09;;;8.08;72.86
56400;BME280;42298;53.638;9.876;2022-12-05T07:07:35;101731.81;;;8.10;72.56
56400;BME280;42298;53.638;9.876;2022-12-05T07:10:00;101719.44;;;8.02;73.13
56400;BME280;42298;53.638;9.876;2022-12-05T07:12:25;101733.34;;;7.86;72.63
56400;BME280;42298;53.638;9.876;2022-12-05T07:14:51;101708.09;;;7.83;72.62
56400;BME280;42298;53.638;9.876;2022-12-05T07:17:17;101741.09;;;7.99;72.99
56400;BME280;42298;53.638;9.876;2022-12-05T07:19:43;101730.34;;;7.87;73.01
56400;BME280;42298;53.638;9.876;2022-12-05T07:22:08;101721.59;;;7.95;72.98
56400;BME280;42298;53.638;9.876;2022-12-05T07:24:34;101706.16;;;7.79;72.43
56400;BME280;42298;53.638;9.876;2022-12-05T07:26:59;101712.19;;;7.76;72.50
56400;BME280;42298;53.638;9.876;2022-12-05T07:29:24;101726.81;;;7.92;72.77
56400;BME280;42298;53.638;9.876;2022-12-05T07:31:50;101731.47;;;7.96;72.63
56400;BME280;42298;53.638;9.876;2022-12-05T07:34:15;101748.81;;;8.12;72.42
56400;BME280;42298;53.638;9.876;2022-12-05T07:36:40;101720.81;;;8.05;72.92
56400;BME280;42298;53.638;9.876;2022-12-05T07:39:05;101736.75;;;8.13;72.25
56400;BME280;42298;53.638;9.876;2022-12-05T07:41:32;101741.66;;;8.01;72.03
56400;BME280;42298;53.638;9.876;2022-12-05T07:43:59;101735.59;;;7.99;72.24
56400;BME280;42298;53.638;9.876;2022-12-05T07:46:26;101749.63;;;8.02;72.74
56400;BME280;42298;53.638;9.876;2022-12-05T07:48:52;101723.19;;;7.81;72.15
56400;BME280;42298;53.638;9.876;2022-12-05T07:51:18;101739.66;;;7.86;71.87
56400;BME280;42298;53.638;9.876;2022-12-05T07:53:44;101728.59;;;7.71;72.06
56400;BME280;42298;53.638;9.876;2022-12-05T07:56:12;101718.69;;;7.65;72.27
56400;BME280;42298;53.638;9.876;2022-12-05T07:58:45;101731.09;;;7.72;72.41
56400;BME280;42298;53.638;9.876;2022-12-05T08:01:17;101743.16;;;7.71;72.59
56400;BME280;42298;53.638;9.876;2022-12-05T08:03:44;101720.03;;;7.52;72.13
56400;BME280;42298;53.638;9.876;2022-12-05T08:06:15;101722.50;;;7.54;72.66
56400;BME280;42298;53.638;9.876;2022-12-05T08:08:41;101742.84;;;7.63;72.86
56400;BME280;42298;53.638;9.876;2022-12-05T08:11:16;101728.00;;;7.59;72.29
56400;BME280;42298;53.638;9.876;2022-12-05T08:13:42;101737.84;;;7.55;72.68
56400;BME280;42298;53.638;9.876;2022-12-05T08:16:12;101711.41;;;7.34;72.80
56400;BME280;42298;53.638;9.876;2022-12-05T08:18:38;101737.53;;;7.51;72.78
56400;BME280;42298;53.638;9.876;2022-12-05T08:21:09;101720.28;;;7.51;72.45
56400;BME280;42298;53.638;9.876;2022-12-05T08:23:36;101731.63;;;7.69;72.72
56400;BME280;42298;53.638;9.876;2022-12-05T08:26:03;101712.69;;;7.63;72.40
56400;BME280;42298;53.638;9.876;2022-12-05T08:28:30;101726.41;;;7.68;71.63
56400;BME280;42298;53.638;9.876;2022-12-05T08:31:02;101720.66;;;7.69;71.92
56400;BME280;42298;53.638;9.876;2022-12-05T08:33:27;101745.69;;;7.88;72.10
56400;BME280;42298;53.638;9.876;2022-12-05T08:35:52;101732.78;;;7.83;71.55
56400;BME280;42298;53.638;9.876;2022-12-05T08:38:18;101732.69;;;7.63;71.79
56400;BME280;42298;53.638;9.876;2022-12-05T08:40:43;101730.19;;;7.62;71.92
56400;BME280;42298;53.638;9.876;2022-12-05T08:43:12;101727.75;;;7.65;72.22
56400;BME280;42298;53.638;9.876;2022-12-05T08:45:37;101728.81;;;7.59;71.51
56400;BME280;42298;53.638;9.876;2022-12-05T08:48:03;101735.59;;;7.47;72.05
56400;BME280;42298;53.638;9.876;2022-12-05T08:50:28;101756.00;;;7.66;71.60
56400;BME280;42298;53.638;9.876;2022-12-05T08:52:53;101723.03;;;7.51;71.68
56400;BME280;42298;53.638;9.876;2022-12-05T08:55:19;101761.84;;;7.79;71.21
56400;BME280;42298;53.638;9.876;2022-12-05T08:57:44;101727.47;;;7.62;71.35
56400;BME280;42298;53.638;9.876;2022-12-05T09:00:10;101740.38;;;7.66;70.78
56400;BME280;42298;53.638;9.876;2022-12-05T09:02:35;101754.94;;;7.72;70.46
56400;BME280;42298;53.638;9.876;2022-12-05T09:05:00;101771.97;;;7.79;70.64
56400;BME280;42298;53.638;9.876;2022-12-05T09:07:26;101741.75;;;7.64;70.83
56400;BME280;42298;53.638;9.876;2022-12-05T09:09:51;101748.31;;;7.68;70.96
56400;BME280;42298;53.638;9.876;2022-12-05T09:12:16;101740.09;;;7.63;70.71
56400;BME280;42298;53.638;9.876;2022-12-05T09:14:42;101776.84;;;7.67;70.56
56400;BME280;42298;53.638;9.876;2022-12-05T09:17:07;101770.53;;;7.61;71.03
56400;BME280;42298;53.638;9.876;2022-12-05T09:19:33;101775.13;;;7.51;70.50
56400;BME280;42298;53.638;9.876;2022-12-05T09:21:58;101774.22;;;7.45;71.11
56400;BME280;42298;53.638;9.876;2022-12-05T09:24:24;101743.19;;;7.30;71.55
56400;BME280;42298;53.638;9.876;2022-12-05T09:26:49;101781.13;;;7.48;70.76
56400;BME280;42298;53.638;9.876;2022-12-05T09:29:15;101754.41;;;7.28;70.81
56400;BME280;42298;53.638;9.876;2022-12-05T09:31:41;101752.72;;;7.22;71.56
56400;BME280;42298;53.638;9.876;2022-12-05T09:34:09;101783.25;;;7.41;71.36
56400;BME280;42298;53.638;9.876;2022-12-05T09:36:36;101745.97;;;7.40;71.00
56400;BME280;42298;53.638;9.876;2022-12-05T09:39:04;101728.44;;;7.41;70.87
56400;BME280;42298;53.638;9.876;2022-12-05T09:47:01;101771.16;;;7.37;70.53
56400;BME280;42298;53.638;9.876;2022-12-05T09:49:29;101764.47;;;7.23;71.69
56400;BME280;42298;53.638;9.876;2022-12-05T09:51:56;101756.31;;;7.28;71.25
56400;BME280;42298;53.638;9.876;2022-12-05T09:54:23;101770.16;;;7.48;71.40
56400;BME280;42298;53.638;9.876;2022-12-05T09:56:51;101767.44;;;7.53;71.06
56400;BME280;42298;53.638;9.876;2022-12-05T09:59:18;101763.00;;;7.47;71.36
56400;BME280;42298;53.638;9.876;2022-12-05T10:01:56;101739.13;;;7.37;71.15
56400;BME280;42298;53.638;9.876;2022-12-05T10:04:54;101766.63;;;7.52;70.68
56400;BME280;42298;53.638;9.876;2022-12-05T10:07:54;101749.03;;;7.48;70.79
56400;BME280;42298;53.638;9.876;2022-12-05T10:10:31;101751.84;;;7.58;70.80
56400;BME280;42298;53.638;9.876;2022-12-05T10:13:37;101765.56;;;7.63;70.25
56400;BME280;42298;53.638;9.876;2022-12-05T10:16:11;101762.00;;;7.58;70.59
56400;BME280;42298;53.638;9.876;2022-12-05T10:18:43;101728.44;;;7.36;71.13
56400;BME280;42298;53.638;9.876;2022-12-05T10:23:58;101733.91;;;7.41;70.71
56400;BME280;42298;53.638;9.876;2022-12-05T10:26:28;101759.28;;;7.63;70.45
56400;BME280;42298;53.638;9.876;2022-12-05T10:29:01;101738.03;;;7.38;70.86
56400;BME280;42298;53.638;9.876;2022-12-05T10:31:34;101733.38;;;7.39;71.03
56400;BME280;42298;53.638;9.876;2022-12-05T10:36:55;101764.16;;;7.51;71.39
56400;BME280;42298;53.638;9.876;2022-12-05T10:39:22;101760.53;;;7.45;71.10
56400;BME280;42298;53.638;9.876;2022-12-05T10:41:48;101753.63;;;7.38;71.12
56400;BME280;42298;53.638;9.876;2022-12-05T10:44:15;101750.34;;;7.36;71.04
56400;BME280;42298;53.638;9.876;2022-12-05T10:46:40;101760.41;;;7.30;71.15
56400;BME280;42298;53.638;9.876;2022-12-05T10:49:11;101752.19;;;7.30;71.62
56400;BME280;42298;53.638;9.876;2022-12-05T10:51:36;101758.53;;;7.31;71.09
56400;BME280;42298;53.638;9.876;2022-12-05T10:54:14;101751.63;;;7.23;71.26
56400;BME280;42298;53.638;9.876;2022-12-05T10:56:46;101745.91;;;7.30;70.94
56400;BME280;42298;53.638;9.876;2022-12-05T10:59:15;101754.19;;;7.40;71.38
56400;BME280;42298;53.638;9.876;2022-12-05T11:01:59;101741.59;;;7.44;71.29
56400;BME280;42298;53.638;9.876;2022-12-05T11:04:29;101742.75;;;7.48;71.19
56400;BME280;42298;53.638;9.876;2022-12-05T11:07:03;101730.38;;;7.45;71.37
56400;BME280;42298;53.638;9.876;2022-12-05T11:09:31;101730.69;;;7.49;71.34
56400;BME280;42298;53.638;9.876;2022-12-05T11:14:24;101728.78;;;7.49;70.55
56400;BME280;42298;53.638;9.876;2022-12-05T11:16:58;101721.94;;;7.52;70.82
56400;BME280;42298;53.638;9.876;2022-12-05T11:19:30;101730.94;;;7.47;70.76
56400;BME280;42298;53.638;9.876;2022-12-05T11:21:56;101721.34;;;7.45;70.92
56400;BME280;42298;53.638;9.876;2022-12-05T11:24:25;101720.81;;;7.48;71.16
56400;BME280;42298;53.638;9.876;2022-12-05T11:26:51;101709.78;;;7.38;71.20
56400;BME280;42298;53.638;9.876;2022-12-05T11:29:37;101730.72;;;7.59;71.09
56400;BME280;42298;53.638;9.876;2022-12-05T11:32:04;101711.72;;;7.42;70.92
56400;BME280;42298;53.638;9.876;2022-12-05T11:34:38;101713.94;;;7.45;71.02
56400;BME280;42298;53.638;9.876;2022-12-05T11:37:21;101720.56;;;7.54;70.65
56400;BME280;42298;53.638;9.876;2022-12-05T11:39:51;101710.94;;;7.47;70.85
56400;BME280;42298;53.638;9.876;2022-12-05T11:42:30;101720.56;;;7.54;70.21
56400;BME280;42298;53.638;9.876;2022-12-05T11:45:18;101703.53;;;7.47;71.43
56400;BME280;42298;53.638;9.876;2022-12-05T11:48:03;101699.69;;;7.43;70.11
56400;BME280;42298;53.638;9.876;2022-12-05T11:56:26;101713.94;;;7.45;69.72
56400;BME280;42298;53.638;9.876;2022-12-05T11:59:12;101709.50;;;7.39;69.96
56400;BME280;42298;53.638;9.876;2022-12-05T12:07:56;101709.78;;;7.38;70.00
56400;BME280;42298;53.638;9.876;2022-12-05T12:10:32;101708.19;;;7.42;70.46
56400;BME280;42298;53.638;9.876;2022-12-05T12:16:14;101710.44;;;7.55;69.21
56400;BME280;42298;53.638;9.876;2022-12-05T12:18:59;101704.66;;;7.51;69.71
56400;BME280;42298;53.638;9.876;2022-12-05T12:24:47;101705.44;;;7.47;69.53
56400;BME280;42298;53.638;9.876;2022-12-05T12:27:26;101708.75;;;7.49;69.88
56400;BME280;42298;53.638;9.876;2022-12-05T12:35:29;101696.97;;;7.43;69.80
56400;BME280;42298;53.638;9.876;2022-12-05T12:45:46;101705.19;;;7.43;69.18
56400;BME280;42298;53.638;9.876;2022-12-05T12:48:26;101702.34;;;7.28;69.19
56400;BME280;42298;53.638;9.876;2022-12-05T12:51:00;101676.50;;;7.14;69.50
56400;BME280;42298;53.638;9.876;2022-12-05T12:56:45;101691.66;;;7.27;69.46
56400;BME280;42298;53.638;9.876;2022-12-05T12:59:53;101689.53;;;7.44;69.70
56400;BME280;42298;53.638;9.876;2022-12-05T13:02:41;101692.88;;;7.51;69.78
56400;BME280;42298;53.638;9.876;2022-12-05T13:05:31;101683.03;;;7.55;69.77
56400;BME280;42298;53.638;9.876;2022-12-05T13:08:06;101680.84;;;7.57;69.99
56400;BME280;42298;53.638;9.876;2022-12-05T13:10:42;101682.53;;;7.68;69.88
56400;BME280;42298;53.638;9.876;2022-12-05T13:13:13;101680.91;;;7.77;69.66
56400;BME280;42298;53.638;9.876;2022-12-05T13:15:43;101644.91;;;7.53;69.21
56400;BME280;42298;53.638;9.876;2022-12-05T13:18:18;101666.38;;;7.71;69.41
56400;BME280;42298;53.638;9.876;2022-12-05T13:20:47;101651.84;;;7.66;68.93
56400;BME280;42298;53.638;9.876;2022-12-05T13:23:16;101648.22;;;7.60;69.19
56400;BME280;42298;53.638;9.876;2022-12-05T13:25:43;101634.50;;;7.50;69.00
56400;BME280;42298;53.638;9.876;2022-12-05T13:28:31;101662.28;;;7.69;69.35
56400;BME280;42298;53.638;9.876;2022-12-05T13:30:59;101680.66;;;7.73;68.51
56400;BME280;42298;53.638;9.876;2022-12-05T13:33:32;101680.91;;;7.72;68.71
56400;BME280;42298;53.638;9.876;2022-12-05T13:36:08;101652.03;;;7.49;68.54
56400;BME280;42298;53.638;9.876;2022-12-05T13:38:57;101675.91;;;7.54;69.12
56400;BME280;42298;53.638;9.876;2022-12-05T13:41:44;101679.78;;;7.68;69.46
56400;BME280;42298;53.638;9.876;2022-12-05T13:44:38;101674.56;;;7.66;69.34
56400;BME280;42298;53.638;9.876;2022-12-05T13:47:06;101676.78;;;7.69;69.75
56400;BME280;42298;53.638;9.876;2022-12-05T13:49:45;101673.50;;;7.67;68.65
56400;BME280;42298;53.638;9.876;2022-12-05T13:52:22;101677.63;;;7.70;69.03
56400;BME280;42298;53.638;9.876;2022-12-05T13:55:21;101678.97;;;7.72;69.53
56400;BME280;42298;53.638;9.876;2022-12-05T13:57:45;101684.44;;;7.62;68.79
56400;BME280;42298;53.638;9.876;2022-12-05T14:05:34;101673.50;;;7.72;69.55
56400;BME280;42298;53.638;9.876;2022-12-05T14:15:45;101685.28;;;7.63;69.57
56400;BME280;42298;53.638;9.876;2022-12-05T14:18:23;101687.22;;;7.72;69.31
56400;BME280;42298;53.638;9.876;2022-12-05T14:21:00;101675.97;;;7.74;69.89
56400;BME280;42298;53.638;9.876;2022-12-05T14:26:33;101687.81;;;7.79;69.15
56400;BME280;42298;53.638;9.876;2022-12-05T14:31:32;101682.25;;;7.69;69.36
56400;BME280;42298;53.638;9.876;2022-12-05T14:39:48;101654.81;;;7.59;68.84
56400;BME280;42298;53.638;9.876;2022-12-05T14:42:22;101631.75;;;7.50;68.56
56400;BME280;42298;53.638;9.876;2022-12-05T14:44:54;101661.13;;;7.65;68.88
56400;BME280;42298;53.638;9.876;2022-12-05T14:47:23;101681.75;;;7.77;68.96
56400;BME280;42298;53.638;9.876;2022-12-05T14:52:27;101690.56;;;7.79;68.90
56400;BME280;42298;53.638;9.876;2022-12-05T14:54:59;101634.78;;;7.54;68.93